sensor_id;sensor_type;location;lat;lon;timestamp;pressure;altitude;pressure_sealevel;temperature;humidity
68179;BME280;54998;42.656;23.382;2023-01-08T00:02:01;95395.50;;;0.48;71.46
68179;BME280;54998;42.656;23.382;2023-01-08T00:04:27;95393.34;;;0.39;71.68
68179;BME280;54998;42.656;23.382;2023-01-08T00:06:52;95392.31;;;0.43;71.57
68179;BME280;54998;42.656;23.382;2023-01-08T00:09:18;95385.69;;;0.40;71.70
68179;BME280;54998;42.656;23.382;2023-01-08T00:11:43;95388.47;;;0.34;71.52
68179;BME280;54998;42.656;23.382;2023-01-08T00:14:09;95388.06;;;0.25;72.37
68179;BME280;54998;42.656;23.382;2023-01-08T00:16:35;95390.13;;;0.35;72.45
68179;BME280;54998;42.656;23.382;2023-01-08T00:19:01;95388.22;;;0.40;72.21
68179;BME280;54998;42.656;23.382;2023-01-08T00:21:27;95390.09;;;0.37;72.27
68179;BME280;54998;42.656;23.382;2023-01-08T00:23:52;95385.16;;;0.34;72.03
68179;BME280;54998;42.656;23.382;2023-01-08T00:26:18;95387.66;;;0.34;72.09
68179;BME280;54998;42.656;23.382;2023-01-08T00:28:43;95378.59;;;0.30;72.27
68179;BME280;54998;42.656;23.382;2023-01-08T00:31:10;95394.06;;;0.22;72.16
68179;BME280;54998;42.656;23.382;2023-01-08T00:33:36;95377.22;;;0.23;72.18
68179;BME280;54998;42.656;23.382;2023-01-08T00:36:07;95381.16;;;0.28;71.86
68179;BME280;54998;42.656;23.382;2023-01-08T00:38:33;95395.00;;;0.19;72.36
68179;BME280;54998;42.656;23.382;2023-01-08T00:40:58;95393.63;;;0.12;73.00
68179;BME280;54998;42.656;23.382;2023-01-08T00:43:24;95399.41;;;0.14;72.86
68179;BME280;54998;42.656;23.382;2023-01-08T00:45:49;95393.63;;;0.12;72.47
68179;BME280;54998;42.656;23.382;2023-01-08T00:48:18;95391.22;;;0.09;72.46
68179;BME280;54998;42.656;23.382;2023-01-08T00:50:43;95394.75;;;0.05;72.80
68179;BME280;54998;42.656;23.382;2023-01-08T00:53:09;95393.94;;;0.05;72.83
68179;BME280;54998;42.656;23.382;2023-01-08T00:55:34;95389.78;;;0.04;72.93
68179;BME280;54998;42.656;23.382;2023-01-08T00:57:59;95391.78;;;-0.05;73.08
68179;BME280;54998;42.656;23.382;2023-01-08T01:00:26;95379.59;;;-0.15;73.47
68179;BME280;54998;42.656;23.382;2023-01-08T01:02:52;95390.59;;;-0.16;72.60
68179;BME280;54998;42.656;23.382;2023-01-08T01:05:18;95394.59;;;-0.33;73.59
68179;BME280;54998;42.656;23.382;2023-01-08T01:07:44;95390.56;;;-0.37;74.39
68179;BME280;54998;42.656;23.382;2023-01-08T01:10:10;95387.69;;;-0.28;74.34
68179;BME280;54998;42.656;23.382;2023-01-08T01:12:37;95391.53;;;0.02;74.25
68179;BME280;54998;42.656;23.382;2023-01-08T01:15:05;95395.63;;;0.04;72.81
68179;BME280;54998;42.656;23.382;2023-01-08T01:17:30;95391.34;;;-0.14;72.58
68179;BME280;54998;42.656;23.382;2023-01-08T01:19:56;95391.84;;;-0.27;73.43
68179;BME280;54998;42.656;23.382;2023-01-08T01:22:21;95389.75;;;-0.37;73.59
68179;BME280;54998;42.656;23.382;2023-01-08T01:24:46;95385.13;;;-0.48;74.64
68179;BME280;54998;42.656;23.382;2023-01-08T01:27:12;95392.44;;;-0.42;75.11
68179;BME280;54998;42.656;23.382;2023-01-08T01:29:37;95382.31;;;-0.40;75.08
68179;BME280;54998;42.656;23.382;2023-01-08T01:32:03;95386.41;;;-0.38;75.18
68179;BME280;54998;42.656;23.382;2023-01-08T01:34:28;95382.13;;;-0.36;74.82
68179;BME280;54998;42.656;23.382;2023-01-08T01:36:54;95379.59;;;-0.36;75.02
68179;BME280;54998;42.656;23.382;2023-01-08T01:39:19;95379.22;;;-0.27;74.75
68179;BME280;54998;42.656;23.382;2023-01-08T01:41:46;95380.94;;;-0.27;74.49
68179;BME280;54998;42.656;23.382;2023-01-08T01:44:38;95378.13;;;-0.19;74.39
68179;BME280;54998;42.656;23.382;2023-01-08T01:47:19;95380.38;;;-0.13;74.12
68179;BME280;54998;42.656;23.382;2023-01-08T01:50:02;95374.25;;;-0.08;73.70
68179;BME280;54998;42.656;23.382;2023-01-08T01:52:35;95375.25;;;-0.12;73.82
68179;BME280;54998;42.656;23.382;2023-01-08T01:55:03;95368.94;;;-0.22;73.96
68179;BME280;54998;42.656;23.382;2023-01-08T01:57:30;95377.34;;;-0.22;74.13
68179;BME280;54998;42.656;23.382;2023-01-08T01:59:57;95373.31;;;-0.26;74.04
68179;BME280;54998;42.656;23.382;2023-01-08T02:02:23;95373.56;;;-0.32;74.14
68179;BME280;54998;42.656;23.382;2023-01-08T02:04:48;95372.78;;;-0.34;74.28
68179;BME280;54998;42.656;23.382;2023-01-08T02:10:13;95362.31;;;-0.45;74.70
68179;BME280;54998;42.656;23.382;2023-01-08T02:12:44;95362.44;;;-0.48;74.86
68179;BME280;54998;42.656;23.382;2023-01-08T02:15:18;95358.22;;;-0.48;75.10
68179;BME280;54998;42.656;23.382;2023-01-08T02:20:39;95347.47;;;-0.53;75.35
68179;BME280;54998;42.656;23.382;2023-01-08T02:29:09;95353.44;;;-0.54;74.95
68179;BME280;54998;42.656;23.382;2023-01-08T02:31:39;95338.63;;;-0.63;75.21
68179;BME280;54998;42.656;23.382;2023-01-08T02:34:05;95342.88;;;-0.64;75.17
68179;BME280;54998;42.656;23.382;2023-01-08T02:36:39;95339.00;;;-0.72;75.39
68179;BME280;54998;42.656;23.382;2023-01-08T02:44:26;95337.34;;;-0.51;74.74
68179;BME280;54998;42.656;23.382;2023-01-08T02:46:56;95345.53;;;-0.46;74.53
68179;BME280;54998;42.656;23.382;2023-01-08T02:49:24;95333.69;;;-0.44;74.63
68179;BME280;54998;42.656;23.382;2023-01-08T02:51:53;95330.13;;;-0.38;74.07
68179;BME280;54998;42.656;23.382;2023-01-08T02:54:25;95334.91;;;-0.32;73.76
68179;BME280;54998;42.656;23.382;2023-01-08T02:56:58;95328.41;;;-0.38;73.69
68179;BME280;54998;42.656;23.382;2023-01-08T02:59:26;95329.91;;;-0.34;73.78
68179;BME280;54998;42.656;23.382;2023-01-08T03:01:53;95336.03;;;-0.39;73.84
68179;BME280;54998;42.656;23.382;2023-01-08T03:04:21;95335.59;;;-0.49;73.88
68179;BME280;54998;42.656;23.382;2023-01-08T03:06:48;95345.66;;;-0.49;73.80
68179;BME280;54998;42.656;23.382;2023-01-08T03:09:15;95349.81;;;-0.48;73.84
68179;BME280;54998;42.656;23.382;2023-01-08T03:11:45;95344.97;;;-0.53;73.86
68179;BME280;54998;42.656;23.382;2023-01-08T03:14:22;95348.19;;;-0.49;74.02
68179;BME280;54998;42.656;23.382;2023-01-08T03:17:13;95335.69;;;-0.52;74.03
68179;BME280;54998;42.656;23.382;2023-01-08T03:19:48;95342.50;;;-0.54;74.04
68179;BME280;54998;42.656;23.382;2023-01-08T03:22:15;95346.81;;;-0.56;74.35
68179;BME280;54998;42.656;23.382;2023-01-08T03:24:45;95348.72;;;-0.63;74.16
68179;BME280;54998;42.656;23.382;2023-01-08T03:27:16;95349.91;;;-0.72;74.60
68179;BME280;54998;42.656;23.382;2023-01-08T03:29:44;95351.75;;;-0.75;74.50
68179;BME280;54998;42.656;23.382;2023-01-08T03:32:13;95343.41;;;-0.77;74.92
68179;BME280;54998;42.656;23.382;2023-01-08T03:34:41;95345.88;;;-0.76;75.41
68179;BME280;54998;42.656;23.382;2023-01-08T03:37:08;95346.69;;;-0.75;75.28
68179;BME280;54998;42.656;23.382;2023-01-08T03:42:12;95341.50;;;-0.93;75.17
68179;BME280;54998;42.656;23.382;2023-01-08T03:44:39;95341.38;;;-0.90;75.19
68179;BME280;54998;42.656;23.382;2023-01-08T03:47:07;95344.09;;;-0.96;75.62
68179;BME280;54998;42.656;23.382;2023-01-08T03:49:35;95327.78;;;-1.08;75.82
68179;BME280;54998;42.656;23.382;2023-01-08T03:52:02;95339.47;;;-1.07;76.04
68179;BME280;54998;42.656;23.382;2023-01-08T03:54:30;95335.88;;;-0.99;75.71
68179;BME280;54998;42.656;23.382;2023-01-08T03:56:56;95334.34;;;-1.04;75.57
68179;BME280;54998;42.656;23.382;2023-01-08T03:59:21;95333.41;;;-1.01;75.52
68179;BME280;54998;42.656;23.382;2023-01-08T04:01:47;95341.00;;;-1.02;75.67
68179;BME280;54998;42.656;23.382;2023-01-08T04:04:12;95339.59;;;-1.10;75.33
68179;BME280;54998;42.656;23.382;2023-01-08T04:06:38;95340.31;;;-1.06;75.39
68179;BME280;54998;42.656;23.382;2023-01-08T04:09:03;95351.56;;;-1.15;75.27
68179;BME280;54998;42.656;23.382;2023-01-08T04:11:29;95346.63;;;-1.18;75.93
68179;BME280;54998;42.656;23.382;2023-01-08T04:13:54;95349.31;;;-1.22;75.55
68179;BME280;54998;42.656;23.382;2023-01-08T04:16:20;95341.13;;;-1.28;75.42
68179;BME280;54998;42.656;23.382;2023-01-08T04:18:46;95349.75;;;-1.35;75.42
68179;BME280;54998;42.656;23.382;2023-01-08T04:21:11;95350.00;;;-1.41;75.62
68179;BME280;54998;42.656;23.382;2023-01-08T04:23:36;95348.09;;;-1.58;76.19
68179;BME280;54998;42.656;23.382;2023-01-08T04:26:06;95346.91;;;-1.71;76.72
68179;BME280;54998;42.656;23.382;2023-01-08T04:28:31;95344.41;;;-1.73;76.71
68179;BME280;54998;42.656;23.382;2023-01-08T04:30:57;95354.38;;;-1.70;76.98
68179;BME280;54998;42.656;23.382;2023-01-08T04:33:22;95348.69;;;-1.75;78.04
68179;BME280;54998;42.656;23.382;2023-01-08T04:35:49;95348.50;;;-1.70;78.16
68179;BME280;54998;42.656;23.382;2023-01-08T04:38:15;95339.88;;;-1.63;78.07
68179;BME280;54998;42.656;23.382;2023-01-08T04:40:40;95348.56;;;-1.48;77.61
68179;BME280;54998;42.656;23.382;2023-01-08T04:43:06;95349.94;;;-1.39;77.18
68179;BME280;54998;42.656;23.382;2023-01-08T04:45:31;95352.63;;;-1.44;77.21
68179;BME280;54998;42.656;23.382;2023-01-08T04:47:58;95350.44;;;-1.53;77.38
68179;BME280;54998;42.656;23.382;2023-01-08T04:50:24;95350.75;;;-1.39;77.28
68179;BME280;54998;42.656;23.382;2023-01-08T04:52:49;95341.06;;;-1.50;77.29
68179;BME280;54998;42.656;23.382;2023-01-08T04:55:15;95350.31;;;-1.50;77.18
68179;BME280;54998;42.656;23.382;2023-01-08T04:57:40;95349.84;;;-1.60;77.43
68179;BME280;54998;42.656;23.382;2023-01-08T05:00:07;95355.91;;;-1.66;77.53
68179;BME280;54998;42.656;23.382;2023-01-08T05:02:33;95354.97;;;-1.63;77.62
68179;BME280;54998;42.656;23.382;2023-01-08T05:04:58;95357.44;;;-1.61;77.57
68179;BME280;54998;42.656;23.382;2023-01-08T05:07:24;95357.59;;;-1.66;77.46
68179;BME280;54998;42.656;23.382;2023-01-08T05:09:49;95360.13;;;-1.66;77.72
68179;BME280;54998;42.656;23.382;2023-01-08T05:12:14;95359.84;;;-1.58;77.50
68179;BME280;54998;42.656;23.382;2023-01-08T05:14:40;95364.06;;;-1.59;77.16
68179;BME280;54998;42.656;23.382;2023-01-08T05:17:05;95358.09;;;-1.56;77.35
68179;BME280;54998;42.656;23.382;2023-01-08T05:19:30;95358.22;;;-1.59;77.31
68179;BME280;54998;42.656;23.382;2023-01-08T05:21:56;95357.44;;;-1.61;77.48
68179;BME280;54998;42.656;23.382;2023-01-08T05:24:22;95355.81;;;-1.62;77.24
68179;BME280;54998;42.656;23.382;2023-01-08T05:26:47;95360.94;;;-1.66;77.36
68179;BME280;54998;42.656;23.382;2023-01-08T05:29:13;95360.94;;;-1.66;77.68
68179;BME280;54998;42.656;23.382;2023-01-08T05:31:38;95356.63;;;-1.62;77.51
68179;BME280;54998;42.656;23.382;2023-01-08T05:34:04;95356.78;;;-1.67;77.61
68179;BME280;54998;42.656;23.382;2023-01-08T05:36:29;95361.81;;;-1.67;77.24
68179;BME280;54998;42.656;23.382;2023-01-08T05:38:55;95370.03;;;-1.61;77.37
68179;BME280;54998;42.656;23.382;2023-01-08T05:41:20;95369.16;;;-1.60;77.08
68179;BME280;54998;42.656;23.382;2023-01-08T05:43:46;95368.44;;;-1.64;77.03
68179;BME280;54998;42.656;23.382;2023-01-08T05:46:11;95363.75;;;-1.73;77.01
68179;BME280;54998;42.656;23.382;2023-01-08T05:48:36;95364.63;;;-1.76;77.42
68179;BME280;54998;42.656;23.382;2023-01-08T05:51:06;95368.81;;;-1.75;77.87
68179;BME280;54998;42.656;23.382;2023-01-08T05:53:31;95359.84;;;-1.82;78.64
68179;BME280;54998;42.656;23.382;2023-01-08T05:56:01;95362.28;;;-1.80;79.12
68179;BME280;54998;42.656;23.382;2023-01-08T05:58:28;95362.19;;;-1.77;79.72
68179;BME280;54998;42.656;23.382;2023-01-08T06:01:05;95357.84;;;-1.74;79.48
68179;BME280;54998;42.656;23.382;2023-01-08T06:03:30;95365.16;;;-1.66;79.09
68179;BME280;54998;42.656;23.382;2023-01-08T06:06:02;95364.34;;;-1.67;78.93
68179;BME280;54998;42.656;23.382;2023-01-08T06:08:29;95366.69;;;-1.62;78.50
68179;BME280;54998;42.656;23.382;2023-01-08T06:10:59;95366.66;;;-1.60;77.96
68179;BME280;54998;42.656;23.382;2023-01-08T06:13:26;95361.66;;;-1.62;77.90
68179;BME280;54998;42.656;23.382;2023-01-08T06:15:51;95364.00;;;-1.57;77.62
68179;BME280;54998;42.656;23.382;2023-01-08T06:18:17;95372.28;;;-1.54;77.26
68179;BME280;54998;42.656;23.382;2023-01-08T06:20:42;95378.72;;;-1.47;76.99
68179;BME280;54998;42.656;23.382;2023-01-08T06:23:08;95376.78;;;-1.38;76.50
68179;BME280;54998;42.656;23.382;2023-01-08T06:25:34;95374.06;;;-1.10;76.39
68179;BME280;54998;42.656;23.382;2023-01-08T06:27:59;95376.78;;;-0.08;73.89
68179;BME280;54998;42.656;23.382;2023-01-08T06:30:25;95380.88;;;1.12;68.54
68179;BME280;54998;42.656;23.382;2023-01-08T06:32:55;95373.00;;;2.24;64.15
68179;BME280;54998;42.656;23.382;2023-01-08T06:35:20;95384.09;;;3.04;60.29
68179;BME280;54998;42.656;23.382;2023-01-08T06:37:46;95380.06;;;3.32;57.83
68179;BME280;54998;42.656;23.382;2023-01-08T06:40:12;95383.69;;;3.12;58.64
68179;BME280;54998;42.656;23.382;2023-01-08T06:42:38;95382.66;;;3.62;58.05
68179;BME280;54998;42.656;23.382;2023-01-08T06:45:04;95387.19;;;4.74;55.28
68179;BME280;54998;42.656;23.382;2023-01-08T06:47:29;95375.56;;;5.81;52.74
68179;BME280;54998;42.656;23.382;2023-01-08T06:49:56;95380.25;;;7.28;49.46
68179;BME280;54998;42.656;23.382;2023-01-08T06:52:23;95393.28;;;8.43;46.43
68179;BME280;54998;42.656;23.382;2023-01-08T06:54:48;95387.84;;;9.71;44.36
68179;BME280;54998;42.656;23.382;2023-01-08T06:57:13;95386.16;;;10.76;42.12
68179;BME280;54998;42.656;23.382;2023-01-08T06:59:39;95392.13;;;11.87;39.98
68179;BME280;54998;42.656;23.382;2023-01-08T07:02:04;95383.81;;;12.61;36.74
68179;BME280;54998;42.656;23.382;2023-01-08T07:04:30;95379.41;;;13.19;36.23
68179;BME280;54998;42.656;23.382;2023-01-08T07:06:55;95383.84;;;13.26;35.54
68179;BME280;54998;42.656;23.382;2023-01-08T07:09:21;95386.56;;;13.70;33.95
68179;BME280;54998;42.656;23.382;2023-01-08T07:11:46;95386.47;;;13.44;33.92
68179;BME280;54998;42.656;23.382;2023-01-08T07:16:40;95396.63;;;10.21;39.65
68179;BME280;54998;42.656;23.382;2023-01-08T07:19:06;95395.34;;;10.16;40.15
68179;BME280;54998;42.656;23.382;2023-01-08T07:21:31;95401.50;;;10.97;38.10
68179;BME280;54998;42.656;23.382;2023-01-08T07:23:56;95398.31;;;11.75;36.78
68179;BME280;54998;42.656;23.382;2023-01-08T07:26:23;95403.03;;;12.67;35.04
68179;BME280;54998;42.656;23.382;2023-01-08T07:28:48;95391.78;;;13.43;33.18
68179;BME280;54998;42.656;23.382;2023-01-08T07:31:14;95393.13;;;13.47;34.25
68179;BME280;54998;42.656;23.382;2023-01-08T07:33:39;95390.25;;;13.50;33.25
68179;BME280;54998;42.656;23.382;2023-01-08T07:36:05;95393.38;;;13.71;32.61
68179;BME280;54998;42.656;23.382;2023-01-08T07:38:31;95402.22;;;14.05;32.49
68179;BME280;54998;42.656;23.382;2023-01-08T07:40:57;95396.41;;;13.85;32.93
68179;BME280;54998;42.656;23.382;2023-01-08T07:43:23;95400.66;;;14.74;31.46
68179;BME280;54998;42.656;23.382;2023-01-08T07:45:49;95402.34;;;15.17;31.23
68179;BME280;54998;42.656;23.382;2023-01-08T07:50:53;95403.09;;;15.02;30.99
68179;BME280;54998;42.656;23.382;2023-01-08T07:53:18;95399.63;;;14.41;31.06
68179;BME280;54998;42.656;23.382;2023-01-08T07:55:44;95405.69;;;15.95;29.52
68179;BME280;54998;42.656;23.382;2023-01-08T07:58:13;95415.22;;;13.77;32.09
68179;BME280;54998;42.656;23.382;2023-01-08T08:00:39;95410.41;;;13.37;33.58
68179;BME280;54998;42.656;23.382;2023-01-08T08:03:06;95412.47;;;13.96;32.86
68179;BME280;54998;42.656;23.382;2023-01-08T08:05:33;95408.41;;;13.76;32.57
68179;BME280;54998;42.656;23.382;2023-01-08T08:07:59;95405.19;;;14.54;32.07
68179;BME280;54998;42.656;23.382;2023-01-08T08:10:24;95401.34;;;16.28;29.82
68179;BME280;54998;42.656;23.382;2023-01-08T08:12:50;95405.47;;;15.72;30.95
68179;BME280;54998;42.656;23.382;2023-01-08T08:15:15;95401.66;;;16.58;29.06
68179;BME280;54998;42.656;23.382;2023-01-08T08:17:47;95400.56;;;17.24;27.85
68179;BME280;54998;42.656;23.382;2023-01-08T08:20:13;95401.66;;;16.74;28.67
68179;BME280;54998;42.656;23.382;2023-01-08T08:22:39;95396.06;;;17.50;27.97
68179;BME280;54998;42.656;23.382;2023-01-08T08:25:04;95399.78;;;17.86;27.10
68179;BME280;54998;42.656;23.382;2023-01-08T08:27:30;95405.84;;;16.75;28.12
68179;BME280;54998;42.656;23.382;2023-01-08T08:29:55;95405.41;;;16.55;29.29
68179;BME280;54998;42.656;23.382;2023-01-08T08:32:20;95406.56;;;18.19;27.43
68179;BME280;54998;42.656;23.382;2023-01-08T08:34:46;95400.22;;;16.63;29.20
68179;BME280;54998;42.656;23.382;2023-01-08T08:37:11;95400.03;;;15.99;30.79
68179;BME280;54998;42.656;23.382;2023-01-08T08:39:36;95402.00;;;16.55;29.40
68179;BME280;54998;42.656;23.382;2023-01-08T08:42:03;95400.84;;;16.33;29.88
68179;BME280;54998;42.656;23.382;2023-01-08T08:44:28;95400.88;;;15.49;30.72
68179;BME280;54998;42.656;23.382;2023-01-08T08:46:54;95404.25;;;16.66;29.14
68179;BME280;54998;42.656;23.382;2023-01-08T08:49:19;95402.19;;;14.58;31.85
68179;BME280;54998;42.656;23.382;2023-01-08T08:51:44;95389.59;;;14.20;32.84
68179;BME280;54998;42.656;23.382;2023-01-08T08:54:10;95399.19;;;13.18;34.67
68179;BME280;54998;42.656;23.382;2023-01-08T08:56:35;95403.63;;;13.35;34.64
68179;BME280;54998;42.656;23.382;2023-01-08T08:59:01;95394.25;;;13.62;34.54
68179;BME280;54998;42.656;23.382;2023-01-08T09:01:26;95392.19;;;15.24;32.12
68179;BME280;54998;42.656;23.382;2023-01-08T09:03:52;95399.31;;;17.12;29.35
68179;BME280;54998;42.656;23.382;2023-01-08T09:06:17;95395.63;;;16.98;28.99
68179;BME280;54998;42.656;23.382;2023-01-08T09:08:42;95394.59;;;18.71;26.56
68179;BME280;54998;42.656;23.382;2023-01-08T09:11:08;95383.25;;;19.01;26.17
68179;BME280;54998;42.656;23.382;2023-01-08T09:13:35;95381.66;;;19.66;25.46
68179;BME280;54998;42.656;23.382;2023-01-08T09:16:01;95383.34;;;17.63;28.28
68179;BME280;54998;42.656;23.382;2023-01-08T09:18:27;95381.06;;;18.75;26.57
68179;BME280;54998;42.656;23.382;2023-01-08T09:20:52;95380.31;;;18.90;26.31
68179;BME280;54998;42.656;23.382;2023-01-08T09:23:18;95377.25;;;18.33;27.08
68179;BME280;54998;42.656;23.382;2023-01-08T09:25:43;95376.53;;;15.76;30.39
68179;BME280;54998;42.656;23.382;2023-01-08T09:28:11;95372.88;;;15.02;31.81
68179;BME280;54998;42.656;23.382;2023-01-08T09:30:37;95369.13;;;17.90;28.17
68179;BME280;54998;42.656;23.382;2023-01-08T09:33:07;95366.81;;;17.64;28.34
68179;BME280;54998;42.656;23.382;2023-01-08T09:35:33;95357.34;;;18.40;26.91
68179;BME280;54998;42.656;23.382;2023-01-08T09:37:59;95351.03;;;17.11;28.53
68179;BME280;54998;42.656;23.382;2023-01-08T09:40:29;95358.16;;;17.72;28.25
68179;BME280;54998;42.656;23.382;2023-01-08T09:43:00;95356.38;;;18.94;27.04
68179;BME280;54998;42.656;23.382;2023-01-08T09:45:29;95346.94;;;19.96;24.94
68179;BME280;54998;42.656;23.382;2023-01-08T09:47:57;95337.94;;;20.20;24.39
68179;BME280;54998;42.656;23.382;2023-01-08T09:50:26;95340.50;;;20.13;24.66
68179;BME280;54998;42.656;23.382;2023-01-08T09:52:52;95332.31;;;17.55;27.79
68179;BME280;54998;42.656;23.382;2023-01-08T09:55:18;95327.63;;;18.73;27.02
68179;BME280;54998;42.656;23.382;2023-01-08T09:57:44;95325.53;;;17.77;27.98
68179;BME280;54998;42.656;23.382;2023-01-08T10:00:15;95316.56;;;18.41;27.27
68179;BME280;54998;42.656;23.382;2023-01-08T10:02:41;95318.59;;;16.51;29.74
68179;BME280;54998;42.656;23.382;2023-01-08T10:05:13;95308.38;;;16.58;30.00
68179;BME280;54998;42.656;23.382;2023-01-08T10:07:39;95309.81;;;16.85;29.60
68179;BME280;54998;42.656;23.382;2023-01-08T10:10:05;95308.59;;;16.48;30.42
68179;BME280;54998;42.656;23.382;2023-01-08T10:12:39;95310.63;;;17.71;28.15
68179;BME280;54998;42.656;23.382;2023-01-08T10:15:06;95298.94;;;18.36;27.14
68179;BME280;54998;42.656;23.382;2023-01-08T10:17:37;95291.69;;;17.94;27.36
68179;BME280;54998;42.656;23.382;2023-01-08T10:20:29;95296.53;;;18.64;27.02
68179;BME280;54998;42.656;23.382;2023-01-08T10:22:55;95292.44;;;18.85;26.69
68179;BME280;54998;42.656;23.382;2023-01-08T10:25:32;95284.91;;;18.45;26.86
68179;BME280;54998;42.656;23.382;2023-01-08T10:28:00;95290.56;;;18.79;26.68
68179;BME280;54998;42.656;23.382;2023-01-08T10:33:02;95288.78;;;16.63;29.75
68179;BME280;54998;42.656;23.382;2023-01-08T10:35:33;95271.56;;;16.23;30.15
68179;BME280;54998;42.656;23.382;2023-01-08T10:37:59;95271.41;;;16.08;30.42
68179;BME280;54998;42.656;23.382;2023-01-08T10:40:40;95269.94;;;15.65;31.25
68179;BME280;54998;42.656;23.382;2023-01-08T10:43:19;95260.72;;;15.62;31.17
68179;BME280;54998;42.656;23.382;2023-01-08T10:45:55;95256.38;;;14.87;33.08
68179;BME280;54998;42.656;23.382;2023-01-08T10:48:22;95257.78;;;15.57;32.06
68179;BME280;54998;42.656;23.382;2023-01-08T10:53:27;95253.66;;;14.97;32.57
68179;BME280;54998;42.656;23.382;2023-01-08T10:56:03;95249.06;;;15.33;31.79
68179;BME280;54998;42.656;23.382;2023-01-08T10:58:38;95239.38;;;13.90;34.11
68179;BME280;54998;42.656;23.382;2023-01-08T11:01:16;95241.31;;;15.50;31.95
68179;BME280;54998;42.656;23.382;2023-01-08T11:03:55;95229.53;;;15.72;31.65
68179;BME280;54998;42.656;23.382;2023-01-08T11:06:23;95241.97;;;15.76;32.02
68179;BME280;54998;42.656;23.382;2023-01-08T11:08:57;95231.25;;;16.29;30.86
68179;BME280;54998;42.656;23.382;2023-01-08T11:11:23;95234.34;;;15.26;32.20
68179;BME280;54998;42.656;23.382;2023-01-08T11:14:02;95229.63;;;14.02;34.67
68179;BME280;54998;42.656;23.382;2023-01-08T11:16:38;95229.97;;;13.37;36.02
68179;BME280;54998;42.656;23.382;2023-01-08T11:19:18;95220.63;;;15.99;31.44
68179;BME280;54998;42.656;23.382;2023-01-08T11:21:59;95219.19;;;15.88;31.18
68179;BME280;54998;42.656;23.382;2023-01-08T11:24:28;95224.31;;;14.64;32.84
68179;BME280;54998;42.656;23.382;2023-01-08T11:29:30;95226.00;;;14.12;34.51
68179;BME280;54998;42.656;23.382;2023-01-08T11:32:08;95216.09;;;16.09;31.43
68179;BME280;54998;42.656;23.382;2023-01-08T11:37:28;95221.03;;;16.83;30.05
68179;BME280;54998;42.656;23.382;2023-01-08T11:39:55;95206.13;;;17.08;28.88
68179;BME280;54998;42.656;23.382;2023-01-08T11:48:03;95204.06;;;17.03;29.32
68179;BME280;54998;42.656;23.382;2023-01-08T11:53:25;95186.38;;;17.53;28.52
68179;BME280;54998;42.656;23.382;2023-01-08T12:01:39;95184.06;;;15.69;31.26
68179;BME280;54998;42.656;23.382;2023-01-08T12:10:03;95163.59;;;17.40;28.76
68179;BME280;54998;42.656;23.382;2023-01-08T12:15:55;95156.00;;;16.61;30.03
68179;BME280;54998;42.656;23.382;2023-01-08T12:19:07;95162.94;;;16.21;30.56
68179;BME280;54998;42.656;23.382;2023-01-08T12:30:29;95163.75;;;11.14;40.09
68179;BME280;54998;42.656;23.382;2023-01-08T12:33:00;95158.22;;;10.99;40.96
68179;BME280;54998;42.656;23.382;2023-01-08T12:35:36;95167.28;;;10.94;41.06
68179;BME280;54998;42.656;23.382;2023-01-08T12:38:04;95160.16;;;10.37;42.47
68179;BME280;54998;42.656;23.382;2023-01-08T12:40:47;95153.16;;;10.49;42.40
68179;BME280;54998;42.656;23.382;2023-01-08T12:43:24;95149.44;;;10.22;42.84
68179;BME280;54998;42.656;23.382;2023-01-08T12:45:52;95153.41;;;10.05;43.37
68179;BME280;54998;42.656;23.382;2023-01-08T12:48:23;95150.22;;;10.23;43.08
68179;BME280;54998;42.656;23.382;2023-01-08T12:53:23;95145.72;;;10.05;43.37
68179;BME280;54998;42.656;23.382;2023-01-08T13:03:31;95141.56;;;9.74;44.35
68179;BME280;54998;42.656;23.382;2023-01-08T13:06:12;95131.81;;;9.68;44.51
68179;BME280;54998;42.656;23.382;2023-01-08T13:08:39;95131.22;;;9.85;44.58
68179;BME280;54998;42.656;23.382;2023-01-08T13:11:06;95125.81;;;9.88;44.18
68179;BME280;54998;42.656;23.382;2023-01-08T13:13:36;95127.28;;;9.81;44.22
68179;BME280;54998;42.656;23.382;2023-01-08T13:18:34;95130.03;;;9.16;46.03
68179;BME280;54998;42.656;23.382;2023-01-08T13:21:01;95136.22;;;9.35;45.78
68179;BME280;54998;42.656;23.382;2023-01-08T13:23:32;95127.84;;;9.33;45.40
68179;BME280;54998;42.656;23.382;2023-01-08T13:26:04;95129.84;;;9.50;45.58
68179;BME280;54998;42.656;23.382;2023-01-08T13:31:25;95118.66;;;9.51;45.31
68179;BME280;54998;42.656;23.382;2023-01-08T13:33:52;95116.78;;;9.53;45.20
68179;BME280;54998;42.656;23.382;2023-01-08T13:36:25;95128.13;;;9.60;45.48
68179;BME280;54998;42.656;23.382;2023-01-08T13:39:05;95131.44;;;9.51;45.31
68179;BME280;54998;42.656;23.382;2023-01-08T13:41:36;95123.91;;;9.29;45.84
68179;BME280;54998;42.656;23.382;2023-01-08T13:44:25;95125.88;;;9.15;46.02
68179;BME280;54998;42.656;23.382;2023-01-08T13:46:59;95124.41;;;9.01;46.52
68179;BME280;54998;42.656;23.382;2023-01-08T13:51:59;95121.09;;;9.11;46.26
68179;BME280;54998;42.656;23.382;2023-01-08T13:54:34;95122.34;;;9.16;46.34
68179;BME280;54998;42.656;23.382;2023-01-08T13:57:15;95130.84;;;9.17;46.35
68179;BME280;54998;42.656;23.382;2023-01-08T14:02:23;95124.47;;;9.11;46.52
68179;BME280;54998;42.656;23.382;2023-01-08T14:04:50;95125.72;;;9.17;46.05
68179;BME280;54998;42.656;23.382;2023-01-08T14:07:16;95123.91;;;9.08;46.26
68179;BME280;54998;42.656;23.382;2023-01-08T14:09:41;95121.47;;;9.06;45.90
68179;BME280;54998;42.656;23.382;2023-01-08T14:12:11;95123.09;;;9.07;46.24
68179;BME280;54998;42.656;23.382;2023-01-08T14:14:38;95121.16;;;8.99;46.25
68179;BME280;54998;42.656;23.382;2023-01-08T14:17:13;95123.16;;;8.96;46.64
68179;BME280;54998;42.656;23.382;2023-01-08T14:19:40;95113.41;;;8.90;46.58
68179;BME280;54998;42.656;23.382;2023-01-08T14:22:13;95119.59;;;8.87;46.89
68179;BME280;54998;42.656;23.382;2023-01-08T14:24:42;95124.25;;;8.82;46.98
68179;BME280;54998;42.656;23.382;2023-01-08T14:27:19;95114.97;;;8.81;47.29